createdAt,value
2018-04-08T00:00:26.238Z,984.56
2018-04-08T00:01:26.234Z,984.56
2018-04-08T00:02:26.230Z,984.54
2018-04-08T00:03:26.230Z,984.57
2018-04-08T00:04:26.223Z,984.57
2018-04-08T00:05:26.222Z,984.57
2018-04-08T00:06:26.220Z,984.54
2018-04-08T00:07:26.219Z,984.57
2018-04-08T00:08:26.216Z,984.57
2018-04-08T00:09:26.214Z,984.58
2018-04-08T00:10:26.209Z,984.52
2018-04-08T00:11:26.207Z,984.53
2018-04-08T00:12:26.205Z,984.55
2018-04-08T00:13:26.209Z,984.52
2018-04-08T00:14:26.212Z,984.49
2018-04-08T00:15:26.194Z,984.52
2018-04-08T00:16:26.190Z,984.43
2018-04-08T00:17:26.187Z,984.45
2018-04-08T00:18:26.189Z,984.48
2018-04-08T00:19:26.192Z,984.46
2018-04-08T00:20:26.181Z,984.47
2018-04-08T00:21:26.176Z,984.45
2018-04-08T00:22:26.173Z,984.43
2018-04-08T00:23:26.170Z,984.44
2018-04-08T00:24:26.169Z,984.41
2018-04-08T00:25:26.164Z,984.39
2018-04-08T00:26:26.165Z,984.38
2018-04-08T00:27:26.164Z,984.36
2018-04-08T00:28:26.155Z,984.37
2018-04-08T00:29:26.154Z,984.38
2018-04-08T00:30:26.155Z,984.35
2018-04-08T00:31:26.152Z,984.36
2018-04-08T00:32:26.147Z,984.33
2018-04-08T00:33:26.142Z,984.36
2018-04-08T00:34:26.138Z,984.31
2018-04-08T00:35:26.134Z,984.3
2018-04-08T00:36:26.132Z,984.24
2018-04-08T00:37:26.128Z,984.28
2018-04-08T00:38:26.126Z,984.25
2018-04-08T00:39:26.123Z,984.26
2018-04-08T00:40:26.119Z,984.24
2018-04-08T00:41:26.116Z,984.24
2018-04-08T00:42:26.113Z,984.29
2018-04-08T00:43:26.110Z,984.27
2018-04-08T00:44:26.159Z,984.29
2018-04-08T00:45:26.106Z,984.27
2018-04-08T00:46:26.105Z,984.28
2018-04-08T00:47:26.106Z,984.29
2018-04-08T00:48:26.095Z,984.26
2018-04-08T00:49:26.092Z,984.28
2018-04-08T00:50:26.088Z,984.19
2018-04-08T00:51:26.086Z,984.22
2018-04-08T00:52:26.083Z,984.16
2018-04-08T00:53:26.080Z,984.22
2018-04-08T00:54:26.125Z,984.17
2018-04-08T00:55:26.073Z,984.17
2018-04-08T00:56:26.071Z,984.17
2018-04-08T00:57:26.066Z,984.15
2018-04-08T00:58:26.095Z,984.18
2018-04-08T00:59:31.114Z,984.11
2018-04-08T01:00:26.062Z,984.17
2018-04-08T01:01:26.057Z,984.16
2018-04-08T01:02:26.055Z,984.13
2018-04-08T01:03:26.054Z,984.14
2018-04-08T01:04:26.067Z,984.11
2018-04-08T01:05:26.041Z,984.12
2018-04-08T01:06:26.037Z,984.11
2018-04-08T01:07:26.035Z,984.09
2018-04-08T01:08:26.048Z,984.08
2018-04-08T01:09:26.030Z,984.04
2018-04-08T01:10:26.025Z,984.06
2018-04-08T01:11:26.021Z,984.09
2018-04-08T01:12:26.022Z,984.08
2018-04-08T01:13:26.016Z,984.06
2018-04-08T01:14:26.044Z,984.1
2018-04-08T01:15:26.010Z,984.12
2018-04-08T01:16:26.006Z,984.11
2018-04-08T01:17:26.005Z,984.11
2018-04-08T01:18:26.000Z,984.12
2018-04-08T01:19:25.996Z,984.08
2018-04-08T01:20:25.997Z,984.1
2018-04-08T01:21:25.996Z,984.11
2018-04-08T01:22:25.985Z,984.08
2018-04-08T01:23:25.982Z,984.08
2018-04-08T01:24:25.984Z,984.07
2018-04-08T01:25:25.976Z,984.05
2018-04-08T01:26:25.973Z,984.1
2018-04-08T01:27:25.970Z,984.09
2018-04-08T01:28:25.968Z,984.09
2018-04-08T01:29:25.966Z,984.09
2018-04-08T01:30:25.962Z,984.03
2018-04-08T01:31:25.956Z,984.03
2018-04-08T01:32:25.952Z,984.01
2018-04-08T01:33:25.949Z,984.02
2018-04-08T01:34:25.948Z,984.04
2018-04-08T01:35:25.948Z,983.99
2018-04-08T01:36:25.953Z,983.99
2018-04-08T01:37:25.934Z,983.98
2018-04-08T01:38:25.930Z,984.02
2018-04-08T01:39:25.930Z,983.99
2018-04-08T01:40:25.924Z,984.02
2018-04-08T01:41:25.920Z,984.04
2018-04-08T01:42:25.921Z,984.04
2018-04-08T01:43:25.914Z,984.04
2018-04-08T01:44:25.908Z,984.05
2018-04-08T01:45:25.918Z,984.08
2018-04-08T01:46:25.907Z,984.07
2018-04-08T01:47:25.899Z,984.06
2018-04-08T01:48:25.906Z,984.02
2018-04-08T01:49:25.897Z,984.06
2018-04-08T01:50:25.901Z,984.03
2018-04-08T01:51:25.896Z,984.08
2018-04-08T01:52:25.971Z,984.07
2018-04-08T01:53:25.876Z,984.05
2018-04-08T01:54:25.876Z,983.99
2018-04-08T01:55:25.868Z,984.02
2018-04-08T01:56:25.866Z,984.05
2018-04-08T01:57:25.868Z,984.07
2018-04-08T01:58:25.861Z,984.06
2018-04-08T01:59:25.856Z,984.02
2018-04-08T02:00:28.004Z,983.99
2018-04-08T02:01:25.848Z,984
2018-04-08T02:02:25.842Z,984
2018-04-08T02:03:25.840Z,984
2018-04-08T02:04:25.838Z,984.02
2018-04-08T02:05:25.837Z,983.97
2018-04-08T02:06:25.829Z,983.96
2018-04-08T02:07:25.824Z,983.97
2018-04-08T02:08:25.820Z,983.92
2018-04-08T02:09:25.817Z,983.96
2018-04-08T02:10:25.815Z,983.94
2018-04-08T02:11:25.813Z,983.92
2018-04-08T02:12:25.804Z,983.93
2018-04-08T02:13:25.801Z,983.92
2018-04-08T02:14:25.822Z,983.96
2018-04-08T02:15:25.796Z,983.97
2018-04-08T02:16:25.790Z,983.95
2018-04-08T02:17:25.786Z,983.96
2018-04-08T02:18:25.782Z,983.95
2018-04-08T02:19:25.779Z,983.96
2018-04-08T02:20:25.775Z,983.95
2018-04-08T02:21:25.772Z,983.97
2018-04-08T02:22:25.765Z,983.95
2018-04-08T02:23:25.761Z,983.92
2018-04-08T02:24:25.783Z,983.93
2018-04-08T02:25:25.754Z,983.89
2018-04-08T02:26:25.751Z,983.92
2018-04-08T02:27:25.747Z,983.89
2018-04-08T02:28:25.742Z,983.94
2018-04-08T02:29:25.742Z,983.96
2018-04-08T02:30:25.758Z,983.94
2018-04-08T02:31:25.740Z,983.92
2018-04-08T02:32:25.727Z,983.91
2018-04-08T02:33:25.723Z,983.88
2018-04-08T02:34:25.719Z,983.92
2018-04-08T02:35:25.715Z,983.89
2018-04-08T02:36:25.713Z,983.89
2018-04-08T02:37:25.715Z,983.89
2018-04-08T02:38:25.703Z,983.85
2018-04-08T02:39:25.702Z,983.87
2018-04-08T02:40:25.700Z,983.89
2018-04-08T02:41:25.693Z,983.87
2018-04-08T02:42:25.688Z,983.85
2018-04-08T02:43:25.685Z,983.88
2018-04-08T02:44:25.692Z,983.84
2018-04-08T02:45:25.676Z,983.84
2018-04-08T02:46:25.673Z,983.83
2018-04-08T02:47:25.673Z,983.83
2018-04-08T02:48:25.665Z,983.83
2018-04-08T02:49:25.667Z,983.84
2018-04-08T02:50:25.655Z,983.85
2018-04-08T02:51:25.651Z,983.83
2018-04-08T02:52:25.647Z,983.83
2018-04-08T02:53:25.653Z,983.82
2018-04-08T02:54:25.639Z,983.82
2018-04-08T02:55:25.638Z,983.83
2018-04-08T02:56:25.631Z,983.81
2018-04-08T02:57:25.625Z,983.81
2018-04-08T02:58:25.622Z,983.81
2018-04-08T02:59:25.619Z,983.81
2018-04-08T03:00:25.616Z,983.79
2018-04-08T03:01:25.609Z,983.78
2018-04-08T03:02:25.607Z,983.8
2018-04-08T03:03:25.601Z,983.79
2018-04-08T03:04:25.603Z,983.8
2018-04-08T03:05:25.604Z,983.79
2018-04-08T03:06:25.602Z,983.78
2018-04-08T03:07:25.585Z,983.78
2018-04-08T03:08:25.583Z,983.78
2018-04-08T03:09:25.592Z,983.78
2018-04-08T03:10:25.573Z,983.75
2018-04-08T03:11:25.570Z,983.75
2018-04-08T03:12:25.565Z,983.76
2018-04-08T03:13:25.562Z,983.77
2018-04-08T03:14:25.556Z,983.75
2018-04-08T03:15:25.553Z,983.78
2018-04-08T03:16:25.549Z,983.79
2018-04-08T03:17:25.552Z,983.77
2018-04-08T03:18:25.541Z,983.76
2018-04-08T03:19:25.537Z,983.8
2018-04-08T03:20:25.533Z,983.8
2018-04-08T03:21:25.530Z,983.81
2018-04-08T03:22:25.524Z,983.8
2018-04-08T03:23:25.524Z,983.81
2018-04-08T03:24:25.554Z,983.8
2018-04-08T03:25:25.513Z,983.8
2018-04-08T03:26:25.508Z,983.77
2018-04-08T03:27:25.505Z,983.77
2018-04-08T03:28:25.501Z,983.77
2018-04-08T03:29:25.551Z,983.75
2018-04-08T03:38:16.040Z,983.69
2018-04-08T03:39:08.075Z,983.69
2018-04-08T03:40:08.234Z,983.7
2018-04-08T03:41:08.069Z,983.73
2018-04-08T03:42:08.065Z,983.75
2018-04-08T03:43:08.061Z,983.72
2018-04-08T03:44:08.055Z,983.75
2018-04-08T03:45:08.056Z,983.73
2018-04-08T03:46:08.055Z,983.7
2018-04-08T03:47:08.045Z,983.7
2018-04-08T03:48:08.043Z,983.73
2018-04-08T03:49:08.039Z,983.73
2018-04-08T03:50:08.161Z,983.71
2018-04-08T03:51:08.039Z,983.74
2018-04-08T03:52:08.028Z,983.73
2018-04-08T03:53:08.020Z,983.7
2018-04-08T03:54:08.019Z,983.73
2018-04-08T03:55:08.197Z,983.73
2018-04-08T03:56:08.017Z,983.76
2018-04-08T03:57:08.002Z,983.73
2018-04-08T03:58:07.998Z,983.73
2018-04-08T03:59:07.999Z,983.7
2018-04-08T04:00:08.160Z,983.69
2018-04-08T04:01:07.990Z,983.67
2018-04-08T04:02:07.987Z,983.69
2018-04-08T04:03:07.979Z,983.66
2018-04-08T04:04:08.023Z,983.65
2018-04-08T04:05:08.044Z,983.66
2018-04-08T04:06:07.965Z,983.67
2018-04-08T04:07:07.969Z,983.62
2018-04-08T04:08:07.966Z,983.59
2018-04-08T04:09:08.803Z,983.59
2018-04-08T04:10:08.128Z,983.59
2018-04-08T04:11:07.945Z,983.56
2018-04-08T04:12:07.941Z,983.57
2018-04-08T04:13:07.942Z,983.55
2018-04-08T04:14:07.934Z,983.52
2018-04-08T04:15:07.928Z,983.52
2018-04-08T04:16:07.925Z,983.49
2018-04-08T04:17:07.921Z,983.47
2018-04-08T04:18:07.913Z,983.47
2018-04-08T04:19:07.913Z,983.44
2018-04-08T04:20:07.950Z,983.43
2018-04-08T04:21:07.901Z,983.46
2018-04-08T04:22:07.896Z,983.47
2018-04-08T04:23:07.892Z,983.42
2018-04-08T04:24:07.889Z,983.44
2018-04-08T04:25:07.884Z,983.48
2018-04-08T04:26:07.878Z,983.46
2018-04-08T04:27:07.875Z,983.46
2018-04-08T04:28:07.875Z,983.46
2018-04-08T04:29:07.865Z,983.49
2018-04-08T04:30:07.940Z,983.47
2018-04-08T04:31:07.857Z,983.42
2018-04-08T04:32:07.854Z,983.46
2018-04-08T04:33:07.847Z,983.48
2018-04-08T04:34:07.843Z,983.42
2018-04-08T04:35:07.909Z,983.46
2018-04-08T04:36:07.835Z,983.45
2018-04-08T04:37:07.831Z,983.43
2018-04-08T04:38:07.829Z,983.43
2018-04-08T04:39:07.830Z,983.45
2018-04-08T04:40:07.945Z,983.4
2018-04-08T04:41:07.829Z,983.43
2018-04-08T04:42:07.816Z,983.39
2018-04-08T04:43:07.816Z,983.43
2018-04-08T04:44:07.828Z,983.41
2018-04-08T04:45:07.975Z,983.41
2018-04-08T04:46:07.793Z,983.41
2018-04-08T04:47:07.790Z,983.41
2018-04-08T04:48:07.787Z,983.44
2018-04-08T04:49:07.777Z,983.42
2018-04-08T04:50:07.774Z,983.43
2018-04-08T04:51:07.776Z,983.45
2018-04-08T04:52:07.765Z,983.43
2018-04-08T04:53:07.761Z,983.41
2018-04-08T04:54:07.767Z,983.42
2018-04-08T04:55:07.832Z,983.41
2018-04-08T04:56:07.747Z,983.47
2018-04-08T04:57:07.745Z,983.46
2018-04-08T04:58:07.742Z,983.43
2018-04-08T04:59:07.733Z,983.43
2018-04-08T05:00:07.758Z,983.46
2018-04-08T05:01:07.725Z,983.48
2018-04-08T05:02:07.721Z,983.49
2018-04-08T05:03:07.716Z,983.5
2018-04-08T05:04:07.718Z,983.48
2018-04-08T05:05:07.813Z,983.53
2018-04-08T05:06:07.704Z,983.59
2018-04-08T05:07:07.701Z,983.56
2018-04-08T05:08:07.696Z,983.58
2018-04-08T05:09:07.692Z,983.6
2018-04-08T05:10:07.763Z,983.61
2018-04-08T05:11:07.683Z,983.58
2018-04-08T05:12:07.677Z,983.64
2018-04-08T05:13:07.674Z,983.65
2018-04-08T05:14:07.678Z,983.65
2018-04-08T05:15:07.728Z,983.64
2018-04-08T05:16:07.664Z,983.67
2018-04-08T05:17:07.661Z,983.68
2018-04-08T05:18:07.661Z,983.69
2018-04-08T05:19:07.650Z,983.66
2018-04-08T05:20:07.646Z,983.68
2018-04-08T05:21:07.645Z,983.66
2018-04-08T05:22:07.638Z,983.64
2018-04-08T05:23:07.663Z,983.64
2018-04-08T05:24:07.631Z,983.68
2018-04-08T05:25:07.628Z,983.63
2018-04-08T05:26:07.637Z,983.62
2018-04-08T05:27:07.621Z,983.59
2018-04-08T05:28:07.618Z,983.63
2018-04-08T05:29:07.616Z,983.6
2018-04-08T05:30:07.613Z,983.63
2018-04-08T05:31:07.618Z,983.64
2018-04-08T05:32:07.614Z,983.68
2018-04-08T05:33:07.606Z,983.63
2018-04-08T05:34:07.607Z,983.67
2018-04-08T05:35:07.671Z,983.69
2018-04-08T05:36:07.599Z,983.67
2018-04-08T05:37:07.597Z,983.64
2018-04-08T05:38:07.595Z,983.63
2018-04-08T05:39:07.600Z,983.68
2018-04-08T05:40:07.644Z,983.69
2018-04-08T05:41:07.596Z,983.67
2018-04-08T05:42:07.590Z,983.68
2018-04-08T05:43:07.590Z,983.67
2018-04-08T05:44:07.588Z,983.69
2018-04-08T05:45:07.587Z,983.69
2018-04-08T05:46:07.587Z,983.69
2018-04-08T05:47:07.585Z,983.65
2018-04-08T05:48:07.588Z,983.62
2018-04-08T05:49:07.591Z,983.69
2018-04-08T05:50:07.590Z,983.67
2018-04-08T05:51:07.589Z,983.64
2018-04-08T05:52:07.590Z,983.64
2018-04-08T05:53:07.600Z,983.7
2018-04-08T05:54:07.588Z,983.69
2018-04-08T05:55:07.589Z,983.67
2018-04-08T05:56:07.577Z,983.64
2018-04-08T05:57:07.575Z,983.68
2018-04-08T05:58:07.620Z,983.68
2018-04-08T05:59:07.578Z,983.67
2018-04-08T06:00:07.601Z,983.67
2018-04-08T06:01:07.569Z,983.72
2018-04-08T06:02:07.569Z,983.67
2018-04-08T06:03:07.567Z,983.69
2018-04-08T06:04:07.565Z,983.69
2018-04-08T06:05:07.563Z,983.67
2018-04-08T06:06:07.562Z,983.66
2018-04-08T06:07:07.565Z,983.66
2018-04-08T06:08:07.559Z,983.66
2018-04-08T06:09:07.558Z,983.7
2018-04-08T06:10:07.562Z,983.65
2018-04-08T06:11:07.553Z,983.69
2018-04-08T06:12:07.551Z,983.64
2018-04-08T06:13:07.550Z,983.67
2018-04-08T06:14:07.549Z,983.72
2018-04-08T06:15:07.580Z,983.73
2018-04-08T06:16:07.547Z,983.7
2018-04-08T06:17:07.605Z,983.74
2018-04-08T06:18:07.540Z,983.73
2018-04-08T06:19:07.540Z,983.72
2018-04-08T06:20:07.597Z,983.68
2018-04-08T06:21:07.534Z,983.71
2018-04-08T06:22:07.534Z,983.73
2018-04-08T06:23:07.534Z,983.69
2018-04-08T06:24:07.528Z,983.72
2018-04-08T06:25:07.527Z,983.73
2018-04-08T06:26:07.574Z,983.75
2018-04-08T06:27:07.523Z,983.75
2018-04-08T06:28:07.520Z,983.71
2018-04-08T06:29:07.520Z,983.7
2018-04-08T06:30:07.526Z,983.75
2018-04-08T06:31:07.570Z,983.77
2018-04-08T06:32:07.518Z,983.73
2018-04-08T06:33:07.517Z,983.72
2018-04-08T06:34:07.517Z,983.69
2018-04-08T06:35:07.516Z,983.7
2018-04-08T06:36:07.568Z,983.7
2018-04-08T06:37:07.517Z,983.72
2018-04-08T06:38:07.566Z,983.74
2018-04-08T06:39:07.519Z,983.77
2018-04-08T06:40:07.519Z,983.72
2018-04-08T06:41:09.475Z,983.77
2018-04-08T06:42:07.524Z,983.75
2018-04-08T06:43:07.533Z,983.75
2018-04-08T06:44:07.530Z,983.73
2018-04-08T06:45:07.602Z,983.74
2018-04-08T06:46:07.535Z,983.77
2018-04-08T06:47:07.539Z,983.78
2018-04-08T06:48:07.540Z,983.73
2018-04-08T06:49:07.544Z,983.74
2018-04-08T06:50:07.549Z,983.73
2018-04-08T06:51:07.550Z,983.73
2018-04-08T06:52:07.553Z,983.73
2018-04-08T06:53:07.557Z,983.71
2018-04-08T06:54:07.564Z,983.75
2018-04-08T06:55:07.566Z,983.71
2018-04-08T06:56:07.580Z,983.7
2018-04-08T06:57:07.628Z,983.69
2018-04-08T06:58:07.648Z,983.69
2018-04-08T06:59:07.582Z,983.69
2018-04-08T07:00:07.588Z,983.71
2018-04-08T07:01:07.594Z,983.69
2018-04-08T07:02:07.597Z,983.66
2018-04-08T07:03:07.609Z,983.66
2018-04-08T07:04:07.610Z,983.68
2018-04-08T07:05:07.617Z,983.65
2018-04-08T07:06:07.616Z,983.67
2018-04-08T07:07:07.625Z,983.71
2018-04-08T07:08:07.631Z,983.7
2018-04-08T07:09:07.633Z,983.72
2018-04-08T07:10:07.718Z,983.73
2018-04-08T07:11:07.645Z,983.7
2018-04-08T07:12:07.650Z,983.65
2018-04-08T07:13:07.658Z,983.64
2018-04-08T07:14:07.664Z,983.63
2018-04-08T07:15:07.749Z,983.61
2018-04-08T07:16:07.670Z,983.6
2018-04-08T07:17:07.681Z,983.56
2018-04-08T07:18:07.688Z,983.58
2018-04-08T07:19:07.686Z,983.6
2018-04-08T07:20:07.764Z,983.54
2018-04-08T07:21:07.693Z,983.57
2018-04-08T07:22:07.698Z,983.56
2018-04-08T07:23:07.703Z,983.53
2018-04-08T07:24:07.707Z,983.54
2018-04-08T07:25:07.796Z,983.55
2018-04-08T07:26:07.726Z,983.54
2018-04-08T07:27:07.723Z,983.54
2018-04-08T07:28:07.725Z,983.51
2018-04-08T07:29:07.729Z,983.52
2018-04-08T07:30:07.800Z,983.53
2018-04-08T07:31:07.735Z,983.53
2018-04-08T07:32:07.739Z,983.54
2018-04-08T07:33:07.743Z,983.51
2018-04-08T07:34:07.777Z,983.47
2018-04-08T07:35:07.829Z,983.46
2018-04-08T07:36:07.757Z,983.47
2018-04-08T07:37:07.763Z,983.42
2018-04-08T07:38:07.777Z,983.48
2018-04-08T07:39:07.772Z,983.46
2018-04-08T07:40:07.779Z,983.41
2018-04-08T07:41:07.794Z,983.47
2018-04-08T07:42:09.008Z,983.49
2018-04-08T07:43:07.793Z,983.45
2018-04-08T07:44:07.834Z,983.45
2018-04-08T07:45:07.879Z,983.47
2018-04-08T07:46:07.810Z,983.51
2018-04-08T07:47:07.814Z,983.46
2018-04-08T07:48:07.823Z,983.5
2018-04-08T07:49:07.827Z,983.41
2018-04-08T07:50:07.832Z,983.44
2018-04-08T07:51:07.846Z,983.42
2018-04-08T07:52:07.859Z,983.39
2018-04-08T07:53:07.851Z,983.38
2018-04-08T07:54:07.861Z,983.38
2018-04-08T07:55:07.941Z,983.39
2018-04-08T07:56:07.869Z,983.36
2018-04-08T07:57:07.872Z,983.35
2018-04-08T07:58:07.879Z,983.36
2018-04-08T07:59:07.925Z,983.34
2018-04-08T08:00:07.888Z,983.34
2018-04-08T08:01:07.890Z,983.35
2018-04-08T08:02:07.894Z,983.34
2018-04-08T08:03:07.903Z,983.34
2018-04-08T08:04:07.910Z,983.32
2018-04-08T08:05:07.920Z,983.28
2018-04-08T08:06:07.927Z,983.33
2018-04-08T08:07:07.913Z,983.32
2018-04-08T08:08:07.936Z,983.29
2018-04-08T08:09:07.928Z,983.33
2018-04-08T08:10:07.998Z,983.29
2018-04-08T08:11:07.955Z,983.3
2018-04-08T08:12:07.931Z,983.26
2018-04-08T08:13:07.936Z,983.24
2018-04-08T08:14:07.936Z,983.22
2018-04-08T08:15:07.941Z,983.24
2018-04-08T08:16:07.946Z,983.21
2018-04-08T08:17:07.951Z,983.22
2018-04-08T08:18:07.959Z,983.18
2018-04-08T08:19:07.959Z,983.19
2018-04-08T08:20:08.066Z,983.2
2018-04-08T08:21:07.969Z,983.23
2018-04-08T08:22:07.976Z,983.17
2018-04-08T08:23:07.980Z,983.13
2018-04-08T08:24:07.987Z,983.17
2018-04-08T08:25:08.128Z,983.2
2018-04-08T08:26:07.994Z,983.11
2018-04-08T08:27:08.001Z,983.11
2018-04-08T08:28:08.009Z,983.09
2018-04-08T08:29:08.013Z,983.09
2018-04-08T08:30:08.197Z,983.11
2018-04-08T08:31:08.023Z,983.1
2018-04-08T08:32:08.035Z,983.08
2018-04-08T08:33:08.036Z,983.07
2018-04-08T08:34:08.042Z,983.07
2018-04-08T08:35:08.052Z,983.06
2018-04-08T08:36:08.057Z,983.08
2018-04-08T08:37:08.062Z,983.09
2018-04-08T08:38:08.067Z,983.06
2018-04-08T08:39:08.074Z,983.05
2018-04-08T08:40:08.172Z,983.08
2018-04-08T08:41:08.093Z,983.05
2018-04-08T08:42:08.094Z,983.05
2018-04-08T08:43:08.098Z,983.03
2018-04-08T08:45:08.420Z,983.02
2018-04-08T08:46:08.121Z,983
2018-04-08T08:47:08.120Z,983.02
2018-04-08T08:48:08.177Z,983.04
2018-04-08T08:49:08.185Z,982.98
2018-04-08T08:50:08.202Z,983.02
2018-04-08T08:51:08.139Z,982.98
2018-04-08T08:52:08.141Z,983.02
2018-04-08T08:53:08.196Z,982.99
2018-04-08T08:54:08.153Z,982.99
2018-04-08T08:55:08.428Z,982.99
2018-04-08T08:56:08.166Z,983.02
2018-04-08T08:57:08.169Z,983.05
2018-04-08T08:58:08.222Z,983.04
2018-04-08T08:59:08.169Z,983.06
2018-04-08T09:00:08.330Z,983.04
2018-04-08T09:01:08.271Z,983.03
2018-04-08T09:02:08.179Z,983.01
2018-04-08T09:03:08.182Z,983.01
2018-04-08T09:04:08.218Z,982.98
2018-04-08T09:05:08.289Z,982.97
2018-04-08T09:06:08.194Z,982.95
2018-04-08T09:07:08.195Z,982.96
2018-04-08T09:08:08.199Z,982.93
2018-04-08T09:09:08.201Z,982.93
2018-04-08T09:10:08.426Z,982.93
2018-04-08T09:11:08.207Z,982.86
2018-04-08T09:12:08.223Z,982.86
2018-04-08T09:13:11.768Z,982.87
2018-04-08T09:14:08.218Z,982.82
2018-04-08T09:15:08.362Z,982.86
2018-04-08T09:16:08.222Z,982.82
2018-04-08T09:17:08.226Z,982.84
2018-04-08T09:18:08.229Z,982.83
2018-04-08T09:19:08.231Z,982.84
2018-04-08T09:20:08.523Z,982.85
2018-04-08T09:21:08.235Z,982.83
2018-04-08T09:22:08.238Z,982.84
2018-04-08T09:23:08.240Z,982.83
2018-04-08T09:24:08.254Z,982.87
2018-04-08T09:25:08.441Z,982.83
2018-04-08T09:26:08.255Z,982.79
2018-04-08T09:27:08.252Z,982.78
2018-04-08T09:28:08.267Z,982.81
2018-04-08T09:29:08.264Z,982.75
2018-04-08T09:30:08.565Z,982.76
2018-04-08T09:31:08.263Z,982.74
2018-04-08T09:32:08.267Z,982.7
2018-04-08T09:33:08.269Z,982.72
2018-04-08T09:34:08.274Z,982.73
2018-04-08T09:35:08.493Z,982.73
2018-04-08T09:36:08.276Z,982.7
2018-04-08T09:37:08.279Z,982.7
2018-04-08T09:38:08.282Z,982.67
2018-04-08T09:39:08.286Z,982.66
2018-04-08T09:40:08.544Z,982.67
2018-04-08T09:41:08.291Z,982.63
2018-04-08T09:42:08.298Z,982.63
2018-04-08T09:43:08.310Z,982.67
2018-04-08T09:44:08.300Z,982.65
2018-04-08T09:45:08.590Z,982.66
2018-04-08T09:46:08.306Z,982.65
2018-04-08T09:47:08.307Z,982.58
2018-04-08T09:48:08.312Z,982.64
2018-04-08T09:49:08.364Z,982.56
2018-04-08T09:50:08.649Z,982.57
2018-04-08T09:51:08.320Z,982.58
2018-04-08T09:52:08.323Z,982.58
2018-04-08T09:53:08.325Z,982.57
2018-04-08T09:54:08.377Z,982.56
2018-04-08T09:55:08.493Z,982.55
2018-04-08T09:56:08.340Z,982.51
2018-04-08T09:57:08.379Z,982.53
2018-04-08T09:58:08.341Z,982.52
2018-04-08T09:59:09.842Z,982.51
2018-04-08T10:00:08.650Z,982.5
2018-04-08T10:01:08.352Z,982.5
2018-04-08T10:02:08.352Z,982.47
2018-04-08T10:03:08.355Z,982.49
2018-04-08T10:04:08.358Z,982.48
2018-04-08T10:05:08.549Z,982.46
2018-04-08T10:06:08.364Z,982.47
2018-04-08T10:07:08.376Z,982.45
2018-04-08T10:08:08.370Z,982.44
2018-04-08T10:09:08.374Z,982.47
2018-04-08T10:10:08.590Z,982.42
2018-04-08T10:11:08.381Z,982.46
2018-04-08T10:12:08.382Z,982.45
2018-04-08T10:13:08.391Z,982.42
2018-04-08T10:14:08.389Z,982.45
2018-04-08T10:15:08.657Z,982.42
2018-04-08T10:16:08.397Z,982.41
2018-04-08T10:17:08.399Z,982.44
2018-04-08T10:18:08.409Z,982.38
2018-04-08T10:19:08.413Z,982.4
2018-04-08T10:20:08.559Z,982.41
2018-04-08T10:21:08.417Z,982.34
2018-04-08T10:22:08.418Z,982.36
2018-04-08T10:53:03.671Z,981.96
2018-04-08T10:54:02.967Z,982
2018-04-08T10:55:02.965Z,981.94
2018-04-08T10:56:02.963Z,982
2018-04-08T10:57:02.963Z,981.99
2018-04-08T10:58:02.963Z,981.98
2018-04-08T10:59:02.966Z,981.97
2018-04-08T11:00:02.964Z,981.93
2018-04-08T11:01:02.972Z,981.92
2018-04-08T11:02:02.968Z,981.94
2018-04-08T11:03:02.966Z,981.92
2018-04-08T11:04:02.969Z,981.91
2018-04-08T11:05:02.970Z,981.88
2018-04-08T11:06:02.973Z,981.88
2018-04-08T11:07:02.975Z,981.81
2018-04-08T11:08:02.980Z,981.85
2018-04-08T11:09:02.980Z,981.87
2018-04-08T11:10:02.984Z,981.81
2018-04-08T11:11:02.985Z,981.82
2018-04-08T11:12:02.995Z,981.81
2018-04-08T11:13:03.009Z,981.78
2018-04-08T11:14:03.005Z,981.8
2018-04-08T11:15:03.013Z,981.76
2018-04-08T11:16:03.008Z,981.76
2018-04-08T11:17:03.008Z,981.77
2018-04-08T11:18:03.017Z,981.75
2018-04-08T11:19:03.019Z,981.74
2018-04-08T11:20:03.014Z,981.76
2018-04-08T11:21:03.024Z,981.71
2018-04-08T11:22:03.023Z,981.68
2018-04-08T11:23:03.027Z,981.71
2018-04-08T11:24:03.027Z,981.71
2018-04-08T11:25:03.030Z,981.7
2018-04-08T11:26:03.032Z,981.67
2018-04-08T11:27:03.039Z,981.66
2018-04-08T11:28:03.042Z,981.63
2018-04-08T11:29:03.044Z,981.62
2018-04-08T11:30:03.048Z,981.6
2018-04-08T11:31:03.053Z,981.6
2018-04-08T11:32:03.058Z,981.57
2018-04-08T11:33:03.057Z,981.59
2018-04-08T11:34:03.068Z,981.6
2018-04-08T11:35:03.066Z,981.58
2018-04-08T11:36:03.074Z,981.57
2018-04-08T11:37:03.073Z,981.54
2018-04-08T11:38:03.077Z,981.51
2018-04-08T11:39:03.079Z,981.56
2018-04-08T11:40:03.083Z,981.55
2018-04-08T11:41:03.089Z,981.57
2018-04-08T11:42:03.092Z,981.54
2018-04-08T11:43:03.095Z,981.49
2018-04-08T11:44:03.099Z,981.46
2018-04-08T11:45:03.102Z,981.51
2018-04-08T11:46:03.107Z,981.45
2018-04-08T11:57:49.571Z,981.39
2018-04-08T11:58:49.574Z,981.41
2018-04-08T11:59:49.578Z,981.36
2018-04-08T12:00:49.583Z,981.36
2018-04-08T12:01:49.590Z,981.39
2018-04-08T12:02:51.191Z,981.32
2018-04-08T12:03:49.594Z,981.3
2018-04-08T12:04:49.600Z,981.27
2018-04-08T12:05:49.607Z,981.33
2018-04-08T12:06:49.608Z,981.28
2018-04-08T12:07:49.612Z,981.27
2018-04-08T12:08:49.617Z,981.28
2018-04-08T12:09:49.617Z,981.21
2018-04-08T12:10:49.622Z,981.18
2018-04-08T12:11:49.626Z,981.17
2018-04-08T12:12:49.631Z,981.15
2018-04-08T12:13:49.636Z,981.11
2018-04-08T12:14:49.638Z,981.11
2018-04-08T12:15:49.642Z,981.08
2018-04-08T12:16:49.647Z,981.06
2018-04-08T12:17:49.651Z,981.07
2018-04-08T12:18:49.655Z,981.03
2018-04-08T12:19:49.658Z,981.03
2018-04-08T12:20:49.714Z,981.02
2018-04-08T12:21:49.669Z,981.05
2018-04-08T12:22:49.680Z,981
2018-04-08T12:23:49.688Z,981.07
2018-04-08T12:24:49.680Z,981.04
2018-04-08T12:25:49.683Z,981.01
2018-04-08T12:26:49.694Z,980.97
2018-04-08T12:27:49.693Z,980.98
2018-04-08T12:28:49.695Z,980.97
2018-04-08T12:29:49.698Z,981.01
2018-04-08T12:30:49.703Z,981.01
2018-04-08T12:31:49.706Z,980.97
2018-04-08T12:32:49.711Z,980.99
2018-04-08T12:33:49.717Z,980.95
2018-04-08T12:34:49.719Z,980.86
2018-04-08T12:35:49.723Z,980.89
2018-04-08T12:36:49.727Z,980.91
2018-04-08T12:37:49.731Z,980.87
2018-04-08T12:38:49.738Z,980.89
2018-04-08T12:39:49.740Z,980.93
2018-04-08T12:40:49.755Z,980.82
2018-04-08T12:41:49.749Z,980.88
2018-04-08T12:42:49.756Z,980.84
2018-04-08T12:43:49.761Z,980.84
2018-04-08T12:44:49.760Z,980.89
2018-04-08T12:45:49.772Z,980.88
2018-04-08T12:46:49.770Z,980.86
2018-04-08T12:47:49.773Z,980.79
2018-04-08T12:48:49.778Z,980.76
2018-04-08T12:49:49.782Z,980.76
2018-04-08T12:50:49.784Z,980.75
2018-04-08T12:51:49.830Z,980.76
2018-04-08T12:52:49.799Z,980.71
2018-04-08T12:53:49.795Z,980.74
2018-04-08T12:54:49.802Z,980.7
2018-04-08T12:55:49.805Z,980.7
2018-04-08T12:56:49.814Z,980.68
2018-04-08T12:57:49.813Z,980.66
2018-04-08T12:58:51.168Z,980.63
2018-04-08T12:59:49.822Z,980.62
2018-04-08T13:00:49.825Z,980.58
2018-04-08T13:01:49.831Z,980.6
2018-04-08T13:02:49.834Z,980.56
2018-04-08T13:03:49.841Z,980.51
2018-04-08T13:04:49.842Z,980.45
2018-04-08T13:05:49.845Z,980.5
2018-04-08T13:06:49.851Z,980.47
2018-04-08T13:07:49.854Z,980.52
2018-04-08T13:08:49.859Z,980.46
2018-04-08T13:09:49.862Z,980.47
2018-04-08T13:10:49.872Z,980.45
2018-04-08T13:11:49.876Z,980.49
2018-04-08T13:12:49.874Z,980.44
2018-04-08T13:13:49.878Z,980.43
2018-04-08T13:14:49.883Z,980.41
2018-04-08T13:15:49.890Z,980.42
2018-04-08T13:16:49.894Z,980.4
2018-04-08T13:17:49.896Z,980.35
2018-04-08T13:18:49.899Z,980.34
2018-04-08T13:19:49.904Z,980.34